Time;durP1;ratioP1;P1;durP2;ratioP2;P2;SDS_P1;SDS_P2;PMS_P1;PMS_P2;Temp;Humidity;BMP_temperature;BMP_pressure;BME280_temperature;BME280_humidity;BME280_pressure;Samples;Min_cycle;Max_cycle;Signal;HPM_P1;HPM_P2
2023/11/29 00:00:03;;;;;;;2.97;1.67;;;3.20;99.90;;;;;;5017997;28;20030;-87
2023/11/29 00:02:30;;;;;;;1.55;1.05;;;3.30;99.90;;;;;;5019191;28;20034;-86
2023/11/29 00:04:57;;;;;;;2.42;1.45;;;3.30;99.90;;;;;;5017043;28;20396;-85
2023/11/29 00:07:23;;;;;;;3.28;1.40;;;3.40;99.90;;;;;;5018693;28;20110;-88
2023/11/29 00:09:49;;;;;;;2.28;1.25;;;3.40;99.90;;;;;;5021749;28;20046;-87
2023/11/29 00:12:15;;;;;;;2.53;1.40;;;3.40;99.90;;;;;;5019679;28;20042;-87
2023/11/29 00:14:40;;;;;;;4.68;1.23;;;3.40;99.90;;;;;;5018537;28;20435;-88
2023/11/29 00:17:06;;;;;;;1.52;1.10;;;3.40;99.90;;;;;;5018950;28;20411;-89
2023/11/29 00:19:32;;;;;;;3.30;1.08;;;3.40;99.90;;;;;;5018493;28;20113;-88
2023/11/29 00:21:59;;;;;;;1.58;0.90;;;3.40;99.90;;;;;;5019336;28;20073;-88
2023/11/29 00:24:24;;;;;;;1.67;0.88;;;3.50;99.90;;;;;;5018365;28;20026;-87
2023/11/29 00:26:50;;;;;;;3.92;1.20;;;3.50;99.90;;;;;;5017608;28;20119;-89
2023/11/29 00:29:16;;;;;;;2.85;0.70;;;3.50;99.90;;;;;;5018247;28;20030;-85
2023/11/29 00:31:41;;;;;;;0.68;0.68;;;3.40;99.90;;;;;;5017706;28;20476;-87
2023/11/29 00:34:07;;;;;;;7.35;0.77;;;3.50;99.90;;;;;;5018953;28;20029;-87
2023/11/29 00:36:33;;;;;;;1.38;0.80;;;3.50;99.90;;;;;;5018414;28;20053;-87
2023/11/29 00:38:58;;;;;;;1.33;0.93;;;3.60;99.90;;;;;;5018632;28;20026;-87
2023/11/29 00:41:24;;;;;;;6.38;0.68;;;3.50;99.90;;;;;;5018142;28;20030;-86
2023/11/29 00:43:50;;;;;;;2.17;0.93;;;3.50;99.90;;;;;;5017372;28;20469;-84
2023/11/29 00:46:16;;;;;;;0.75;0.75;;;3.50;99.90;;;;;;5017143;28;20026;-87
2023/11/29 00:48:41;;;;;;;3.00;1.52;;;3.40;99.90;;;;;;5016991;28;20022;-86
2023/11/29 00:51:07;;;;;;;2.22;1.05;;;3.40;99.90;;;;;;5017600;28;20026;-87
2023/11/29 00:53:33;;;;;;;2.17;1.00;;;3.40;99.90;;;;;;5012387;28;20484;-86
2023/11/29 00:55:59;;;;;;;6.68;1.00;;;3.40;99.90;;;;;;5017873;28;20022;-87
2023/11/29 00:58:25;;;;;;;4.93;1.25;;;3.50;99.90;;;;;;5035564;28;20555;-86
2023/11/29 01:00:51;;;;;;;5.13;1.45;;;3.40;99.90;;;;;;5035520;28;20122;-86
2023/11/29 01:03:17;;;;;;;1.60;0.95;;;3.40;99.90;;;;;;5018333;28;20045;-84
2023/11/29 01:05:45;;;;;;;8.70;1.65;;;3.50;99.90;;;;;;5035030;28;20043;-87
2023/11/29 01:08:11;;;;;;;2.03;1.33;;;3.50;99.90;;;;;;5035316;28;20555;-85
2023/11/29 01:10:39;;;;;;;3.70;1.05;;;3.40;99.90;;;;;;5034935;28;20045;-87
2023/11/29 01:13:06;;;;;;;1.88;1.20;;;3.50;99.90;;;;;;5034935;28;20037;-87
2023/11/29 01:15:32;;;;;;;6.18;1.30;;;3.60;99.90;;;;;;5035821;28;20029;-85
2023/11/29 01:17:58;;;;;;;1.00;0.90;;;3.60;99.90;;;;;;5022493;28;20045;-86
2023/11/29 01:20:23;;;;;;;3.17;1.60;;;3.70;99.90;;;;;;5035297;28;20040;-86
2023/11/29 01:22:49;;;;;;;2.78;1.00;;;3.70;99.90;;;;;;5035582;28;20116;-85
2023/11/29 01:25:15;;;;;;;3.30;1.23;;;3.70;99.90;;;;;;5034601;28;20115;-85
2023/11/29 01:27:43;;;;;;;2.15;1.00;;;3.70;99.90;;;;;;5024683;28;20032;-85
2023/11/29 01:30:09;;;;;;;;;;;3.80;99.90;;;;;;5016346;28;20049;-86
2023/11/29 01:32:34;;;;;;;4.10;1.08;;;3.80;99.90;;;;;;5017026;28;19909;-86
2023/11/29 01:35:00;;;;;;;1.92;0.93;;;3.80;99.90;;;;;;5015468;28;20176;-85
2023/11/29 01:37:26;;;;;;;1.13;1.00;;;3.90;99.90;;;;;;5014959;28;20024;-85
2023/11/29 01:39:52;;;;;;;3.63;1.15;;;3.90;99.90;;;;;;5015219;28;20030;-86
2023/11/29 01:42:17;;;;;;;3.33;0.82;;;3.90;99.90;;;;;;5016327;28;20048;-85
2023/11/29 01:44:43;;;;;;;3.33;0.95;;;3.90;99.90;;;;;;4996679;28;20030;-85
2023/11/29 01:47:13;;;;;;;0.93;0.85;;;4.00;99.90;;;;;;5013096;28;20026;-84
2023/11/29 01:49:41;;;;;;;0.70;0.70;;;4.00;99.90;;;;;;5016497;28;20037;-84
2023/11/29 01:52:07;;;;;;;3.30;1.13;;;4.00;99.90;;;;;;5014939;28;20033;-86
2023/11/29 01:54:32;;;;;;;2.58;0.60;;;4.00;99.90;;;;;;5016161;28;20106;-86
2023/11/29 01:57:02;;;;;;;5.88;0.80;;;4.00;99.90;;;;;;5014978;28;20128;-85
2023/11/29 01:59:28;;;;;;;2.08;0.93;;;4.10;99.90;;;;;;5013769;28;20389;-85
2023/11/29 02:01:54;;;;;;;4.93;0.90;;;4.10;99.90;;;;;;5016144;28;20029;-84
2023/11/29 02:04:19;;;;;;;0.70;0.70;;;4.10;99.90;;;;;;5014696;28;20030;-85
2023/11/29 02:06:47;;;;;;;5.50;0.68;;;4.10;99.90;;;;;;5015854;28;20148;-86
2023/11/29 02:09:13;;;;;;;2.25;1.00;;;4.10;99.90;;;;;;5015674;28;20030;-86
2023/11/29 02:11:41;;;;;;;0.98;0.77;;;4.10;99.90;;;;;;5015227;28;20053;-85
2023/11/29 02:14:07;;;;;;;5.82;0.82;;;4.00;99.90;;;;;;5013046;28;20060;-86
2023/11/29 02:16:34;;;;;;;7.43;1.10;;;4.00;99.90;;;;;;5015478;28;20026;-86
2023/11/29 02:19:00;;;;;;;4.72;0.82;;;4.00;99.90;;;;;;5014084;28;20032;-86
2023/11/29 02:21:25;;;;;;;4.10;1.13;;;4.00;99.90;;;;;;5015752;28;20089;-85
2023/11/29 02:24:03;;;;;;;1.05;0.70;;;4.00;99.90;;;;;;4996421;28;20022;-86
2023/11/29 02:26:29;;;;;;;6.13;0.75;;;4.00;99.90;;;;;;5005878;28;20044;-85
2023/11/29 02:28:55;;;;;;;1.13;0.60;;;4.00;99.90;;;;;;5015836;28;20030;-86
2023/11/29 02:31:20;;;;;;;5.10;1.52;;;4.10;99.90;;;;;;5015928;28;20032;-85
2023/11/29 02:33:47;;;;;;;1.90;0.85;;;4.00;99.90;;;;;;5014650;28;20026;-83
2023/11/29 02:36:13;;;;;;;3.40;0.60;;;3.90;99.90;;;;;;5015195;28;20502;-85
2023/11/29 02:38:39;;;;;;;6.22;0.80;;;3.80;99.90;;;;;;5016307;28;20021;-86
2023/11/29 02:41:05;;;;;;;1.45;0.80;;;3.80;99.90;;;;;;5018843;28;20018;-89
2023/11/29 02:43:31;;;;;;;7.00;1.00;;;3.80;99.90;;;;;;5021059;28;20088;-87
2023/11/29 02:45:56;;;;;;;4.32;0.80;;;3.80;99.90;;;;;;5031788;28;20022;-87
2023/11/29 02:48:22;;;;;;;0.75;0.60;;;3.80;99.90;;;;;;5034777;28;20014;-87
2023/11/29 02:50:48;;;;;;;1.63;0.55;;;3.80;99.90;;;;;;5037143;28;20034;-87
2023/11/29 02:53:14;;;;;;;1.42;0.50;;;3.80;99.90;;;;;;5037586;28;20025;-86
2023/11/29 02:55:40;;;;;;;0.20;0.20;;;3.80;99.90;;;;;;5038242;28;20010;-84
2023/11/29 02:58:06;;;;;;;2.13;0.50;;;3.80;99.90;;;;;;5034320;28;20026;-86
2023/11/29 03:00:32;;;;;;;4.05;0.52;;;3.90;99.90;;;;;;5014670;28;20026;-89
2023/11/29 03:02:58;;;;;;;3.90;0.38;;;3.90;99.90;;;;;;5015838;28;20042;-89
2023/11/29 03:05:24;;;;;;;1.15;0.40;;;3.90;99.90;;;;;;5015634;28;20538;-88
2023/11/29 03:07:50;;;;;;;7.15;0.40;;;3.90;99.90;;;;;;5013780;28;20018;-89
2023/11/29 03:10:16;;;;;;;5.95;0.60;;;3.90;99.90;;;;;;5014208;28;20030;-86
2023/11/29 03:12:41;;;;;;;5.90;0.95;;;4.00;99.90;;;;;;5014697;28;20053;-89
2023/11/29 03:15:09;;;;;;;4.30;0.88;;;4.00;99.90;;;;;;5014107;28;20375;-90
2023/11/29 03:17:35;;;;;;;5.47;0.60;;;4.00;99.90;;;;;;5016497;28;20095;-89
2023/11/29 03:20:03;;;;;;;4.40;0.50;;;4.00;99.90;;;;;;5016496;28;20022;-89
2023/11/29 03:22:28;;;;;;;1.50;0.43;;;4.10;99.90;;;;;;5017895;28;20480;-90
2023/11/29 03:24:54;;;;;;;2.05;0.22;;;4.10;99.90;;;;;;5016327;28;20060;-90
2023/11/29 03:27:20;;;;;;;4.32;0.30;;;4.20;99.90;;;;;;5016790;28;20122;-85
2023/11/29 03:29:46;;;;;;;4.80;1.13;;;4.20;99.90;;;;;;5016094;28;20034;-89
2023/11/29 03:32:11;;;;;;;2.15;0.77;;;4.10;99.90;;;;;;5016997;28;20423;-89
2023/11/29 03:34:37;;;;;;;0.93;0.40;;;4.10;99.90;;;;;;5016533;28;20018;-88
2023/11/29 03:37:03;;;;;;;3.10;0.55;;;4.10;99.90;;;;;;5016426;28;20029;-86
2023/11/29 03:39:29;;;;;;;1.83;0.57;;;4.10;99.90;;;;;;5016409;28;20026;-87
2023/11/29 03:41:55;;;;;;;5.60;0.40;;;4.00;99.90;;;;;;5015869;28;20025;-88
2023/11/29 03:44:21;;;;;;;3.05;0.65;;;4.00;99.90;;;;;;5017114;28;20026;-86
2023/11/29 03:46:46;;;;;;;1.15;0.30;;;4.10;99.90;;;;;;5041216;28;20034;-83
2023/11/29 03:49:12;;;;;;;4.95;0.60;;;4.10;99.90;;;;;;5041164;28;20110;-84
2023/11/29 03:51:38;;;;;;;4.07;0.38;;;4.10;99.90;;;;;;5040906;28;20044;-84
2023/11/29 03:54:05;;;;;;;2.70;0.90;;;4.10;99.90;;;;;;5041726;28;20010;-86
2023/11/29 03:56:30;;;;;;;0.65;0.40;;;4.00;99.90;;;;;;5040127;28;20090;-87
2023/11/29 03:58:56;;;;;;;6.57;0.68;;;4.00;99.90;;;;;;5038900;28;20018;-84
2023/11/29 04:01:22;;;;;;;7.72;0.85;;;3.90;99.90;;;;;;5039846;28;20018;-85
2023/11/29 04:03:47;;;;;;;1.23;0.35;;;3.90;99.90;;;;;;5038548;28;20032;-84
2023/11/29 04:06:26;;;;;;;1.85;0.70;;;3.90;99.90;;;;;;5036331;28;20018;-84
2023/11/29 04:08:55;;;;;;;7.90;0.63;;;4.00;99.90;;;;;;5028448;28;20030;-87
2023/11/29 04:11:21;;;;;;;7.10;0.32;;;4.00;99.90;;;;;;5008001;28;20069;-85
2023/11/29 04:13:48;;;;;;;6.82;0.70;;;4.00;99.90;;;;;;5022173;28;20653;-85
2023/11/29 04:16:24;;;;;;;1.27;0.55;;;4.00;99.90;;;;;;5018993;28;20028;-86
2023/11/29 04:18:52;;;;;;;4.72;0.98;;;3.90;99.90;;;;;;5014784;28;20030;-85
2023/11/29 04:21:25;;;;;;;3.90;0.45;;;4.00;99.90;;;;;;5017971;28;20037;-87
2023/11/29 04:23:52;;;;;;;4.80;0.47;;;4.10;99.90;;;;;;5017406;28;20037;-87
2023/11/29 04:26:39;;;;;;;4.03;0.60;;;4.10;99.90;;;;;;5016144;28;20044;-86
2023/11/29 04:29:06;;;;;;;7.53;0.52;;;4.20;99.90;;;;;;5015857;28;20065;-86
2023/11/29 04:31:33;;;;;;;18.65;0.50;;;4.20;99.90;;;;;;5015519;28;20017;-85
2023/11/29 04:33:59;;;;;;;6.72;0.65;;;4.20;99.90;;;;;;5016361;28;20022;-83
2023/11/29 04:36:24;;;;;;;7.00;0.40;;;4.30;99.90;;;;;;5016025;28;20018;-85
2023/11/29 04:38:52;;;;;;;1.08;0.20;;;4.30;99.90;;;;;;5014629;28;20029;-84
2023/11/29 04:41:18;;;;;;;1.60;0.20;;;4.30;99.90;;;;;;5014619;28;20557;-86
2023/11/29 04:43:44;;;;;;;1.90;0.20;;;4.30;99.90;;;;;;5015872;28;20105;-86
2023/11/29 04:46:11;;;;;;;2.92;0.40;;;4.30;99.90;;;;;;5014597;28;20514;-85
2023/11/29 04:48:37;;;;;;;5.37;0.33;;;4.20;99.90;;;;;;5016457;28;20018;-84
2023/11/29 04:51:04;;;;;;;2.83;0.30;;;4.10;99.90;;;;;;5015815;28;20548;-85
2023/11/29 04:53:30;;;;;;;5.25;0.35;;;4.10;99.90;;;;;;4994336;28;20037;-85
2023/11/29 04:55:56;;;;;;;0.15;0.10;;;4.00;99.90;;;;;;4997982;28;20045;-86
2023/11/29 04:58:22;;;;;;;1.40;0.20;;;4.00;99.90;;;;;;4996817;28;20591;-84
2023/11/29 05:00:48;;;;;;;0.75;0.30;;;3.90;99.90;;;;;;5012760;28;20034;-86
2023/11/29 05:03:15;;;;;;;1.08;0.25;;;3.90;99.90;;;;;;4996159;28;20038;-85
2023/11/29 05:05:41;;;;;;;0.90;0.30;;;3.80;99.90;;;;;;4995992;28;20060;-85
2023/11/29 05:08:07;;;;;;;0.32;0.20;;;3.90;99.90;;;;;;4996256;28;20034;-86
2023/11/29 05:10:33;;;;;;;2.35;0.28;;;3.80;99.90;;;;;;4996023;28;20511;-85
2023/11/29 05:12:58;;;;;;;1.80;0.55;;;3.80;99.90;;;;;;4995775;28;20089;-87
2023/11/29 05:15:24;;;;;;;1.67;0.50;;;3.80;99.90;;;;;;4995864;28;20057;-86
2023/11/29 05:17:50;;;;;;;6.47;0.50;;;3.70;99.90;;;;;;5017664;28;20041;-85
2023/11/29 05:20:15;;;;;;;0.77;0.38;;;3.80;99.90;;;;;;5012672;28;20454;-86
2023/11/29 05:22:41;;;;;;;3.45;0.50;;;3.80;99.90;;;;;;4997382;28;20571;-86
2023/11/29 05:25:08;;;;;;;3.30;0.45;;;3.90;99.90;;;;;;5001505;28;20043;-86
2023/11/29 05:27:33;;;;;;;0.30;0.10;;;3.90;99.90;;;;;;5023357;28;20022;-85
2023/11/29 05:29:59;;;;;;;0.17;0.08;;;4.00;99.90;;;;;;5013164;28;20117;-87
2023/11/29 05:32:25;;;;;;;0.30;0.10;;;4.10;99.90;;;;;;5012850;28;20105;-85
2023/11/29 05:34:50;;;;;;;0.52;0.10;;;4.00;99.90;;;;;;5014414;28;20518;-85
2023/11/29 05:37:16;;;;;;;0.05;0.05;;;4.00;99.90;;;;;;5013027;28;20480;-84
2023/11/29 05:39:41;;;;;;;0.45;0.25;;;3.90;99.90;;;;;;5014119;28;20101;-86
2023/11/29 05:42:08;;;;;;;2.85;0.75;;;3.90;99.90;;;;;;5012890;28;20033;-85
2023/11/29 05:44:34;;;;;;;0.00;0.00;;;3.90;99.90;;;;;;5012997;28;20034;-85
2023/11/29 05:47:01;;;;;;;0.13;0.10;;;3.80;99.90;;;;;;5012734;28;20045;-85
2023/11/29 05:49:27;;;;;;;0.70;0.35;;;3.80;99.90;;;;;;5013151;28;20033;-85
2023/11/29 05:51:52;;;;;;;0.28;0.13;;;3.90;99.90;;;;;;5013569;28;20029;-85
2023/11/29 05:54:21;;;;;;;0.73;0.20;;;3.90;99.90;;;;;;5009829;28;20030;-85
2023/11/29 05:56:48;;;;;;;2.58;0.32;;;3.90;99.90;;;;;;5012461;28;20026;-85
2023/11/29 05:59:13;;;;;;;4.20;0.40;;;3.90;99.90;;;;;;5013877;28;20111;-85
2023/11/29 06:01:39;;;;;;;1.83;0.55;;;3.80;99.90;;;;;;5012768;28;20022;-85
2023/11/29 06:04:05;;;;;;;4.72;0.38;;;3.80;99.90;;;;;;5009927;28;20130;-86
2023/11/29 06:06:31;;;;;;;2.42;0.20;;;3.80;99.90;;;;;;5012475;28;20377;-85
2023/11/29 06:08:58;;;;;;;4.95;0.22;;;3.90;99.90;;;;;;5013851;28;20117;-86
2023/11/29 06:11:23;;;;;;;3.85;0.38;;;3.90;99.90;;;;;;5013523;28;20056;-85
2023/11/29 06:13:52;;;;;;;1.90;0.50;;;3.90;99.90;;;;;;5015026;28;20539;-84
2023/11/29 06:16:19;;;;;;;6.35;0.70;;;4.00;99.90;;;;;;5013142;28;20101;-85
2023/11/29 06:18:45;;;;;;;2.47;0.20;;;4.10;99.90;;;;;;5013381;28;20443;-85
2023/11/29 06:21:11;;;;;;;3.65;0.43;;;4.10;99.90;;;;;;5015018;28;20519;-85
2023/11/29 06:23:38;;;;;;;0.17;0.13;;;4.00;99.90;;;;;;5014266;28;20026;-85
2023/11/29 06:26:04;;;;;;;19.13;1.30;;;4.00;99.90;;;;;;5014704;28;20038;-85
2023/11/29 06:28:31;;;;;;;2.72;0.47;;;4.00;99.90;;;;;;5012960;28;20057;-85
2023/11/29 06:30:58;;;;;;;7.20;0.50;;;4.10;99.90;;;;;;5010808;28;20104;-86
2023/11/29 06:33:24;;;;;;;3.75;0.50;;;4.10;99.90;;;;;;5012936;28;20112;-86
2023/11/29 06:35:50;;;;;;;6.25;0.40;;;4.10;99.90;;;;;;5013124;28;20510;-85
2023/11/29 06:38:16;;;;;;;4.40;0.60;;;4.10;99.90;;;;;;5012457;28;20022;-84
2023/11/29 06:40:42;;;;;;;0.88;0.30;;;4.20;99.90;;;;;;5013397;28;20041;-85
2023/11/29 06:43:10;;;;;;;2.03;0.35;;;4.20;99.90;;;;;;5013990;28;20030;-85
2023/11/29 06:45:37;;;;;;;7.82;0.25;;;4.30;99.90;;;;;;5013384;28;20026;-84
2023/11/29 06:48:12;;;;;;;3.78;0.40;;;4.30;99.90;;;;;;5012386;28;20030;-88
2023/11/29 06:50:38;;;;;;;2.10;0.50;;;4.30;99.90;;;;;;5013746;28;20060;-84
2023/11/29 06:53:04;;;;;;;7.53;1.10;;;4.30;99.90;;;;;;5016579;28;20088;-85
2023/11/29 06:55:32;;;;;;;4.40;0.90;;;4.30;99.90;;;;;;5017046;28;20041;-86
2023/11/29 06:57:58;;;;;;;8.80;0.90;;;4.30;99.90;;;;;;5017566;28;20038;-87
2023/11/29 07:00:25;;;;;;;8.65;0.55;;;4.30;99.90;;;;;;5016709;28;20143;-84
2023/11/29 07:02:51;;;;;;;5.53;0.68;;;4.20;99.90;;;;;;5016663;28;20527;-86
2023/11/29 07:05:18;;;;;;;3.90;0.73;;;4.30;99.90;;;;;;5016556;28;20040;-86
2023/11/29 07:07:46;;;;;;;6.45;1.23;;;4.30;99.90;;;;;;5017893;28;20482;-85
2023/11/29 07:10:13;;;;;;;3.50;0.70;;;4.30;99.90;;;;;;5016638;28;20104;-86
2023/11/29 07:12:39;;;;;;;0.68;0.57;;;4.30;99.90;;;;;;5017243;28;20373;-86
2023/11/29 07:15:05;;;;;;;0.75;0.60;;;4.30;99.90;;;;;;5018054;28;20037;-85
2023/11/29 07:17:31;;;;;;;2.78;0.90;;;4.30;99.90;;;;;;5017793;28;20021;-86
2023/11/29 07:19:56;;;;;;;5.03;0.70;;;4.40;99.90;;;;;;5017546;28;20084;-86
2023/11/29 07:22:24;;;;;;;7.50;1.35;;;4.40;99.90;;;;;;5018104;28;20453;-86
2023/11/29 07:24:52;;;;;;;5.50;1.00;;;4.40;99.90;;;;;;5018155;28;20026;-84
2023/11/29 07:27:20;;;;;;;1.95;0.80;;;4.50;99.90;;;;;;5017440;28;20037;-85
2023/11/29 07:29:46;;;;;;;1.13;0.70;;;4.50;99.90;;;;;;5017170;28;20026;-84
2023/11/29 07:32:14;;;;;;;5.32;0.88;;;4.40;99.90;;;;;;5016037;28;20048;-85
2023/11/29 07:34:43;;;;;;;2.33;1.10;;;4.40;99.90;;;;;;5016240;28;20021;-85
2023/11/29 07:37:09;;;;;;;7.70;0.90;;;4.20;99.90;;;;;;5017425;28;20026;-85
2023/11/29 07:39:35;;;;;;;6.97;1.00;;;4.10;99.90;;;;;;5015450;28;20484;-85
2023/11/29 07:42:00;;;;;;;10.00;0.85;;;4.10;99.90;;;;;;5016026;28;20022;-85
2023/11/29 07:44:26;;;;;;;5.45;1.20;;;4.10;99.90;;;;;;5017006;28;20041;-85
2023/11/29 07:46:51;;;;;;;6.03;1.35;;;4.00;99.90;;;;;;5016883;28;20034;-86
2023/11/29 07:49:17;;;;;;;3.42;0.95;;;4.00;99.90;;;;;;5017750;28;20173;-84
2023/11/29 07:51:46;;;;;;;3.88;0.98;;;4.00;99.90;;;;;;5017451;28;20442;-85
2023/11/29 07:54:13;;;;;;;4.60;1.00;;;4.00;99.90;;;;;;5012427;28;20061;-84
2023/11/29 07:56:42;;;;;;;2.55;1.58;;;4.00;99.90;;;;;;5014145;28;20048;-85
2023/11/29 07:59:09;;;;;;;5.18;1.65;;;4.00;99.90;;;;;;5016035;28;20431;-83
2023/11/29 08:01:35;;;;;;;3.63;0.80;;;4.00;99.90;;;;;;5013985;28;20029;-84
2023/11/29 08:04:01;;;;;;;1.65;0.88;;;3.90;99.90;;;;;;5014452;28;20029;-84
2023/11/29 08:06:28;;;;;;;12.60;1.35;;;3.80;99.90;;;;;;5015596;28;20484;-84
2023/11/29 08:08:55;;;;;;;1.13;0.73;;;3.80;99.90;;;;;;5014636;28;20492;-84
2023/11/29 08:11:21;;;;;;;4.82;0.90;;;3.80;99.90;;;;;;5013529;28;20108;-84
2023/11/29 08:13:47;;;;;;;11.05;1.67;;;3.80;99.90;;;;;;5015242;28;20025;-85
2023/11/29 08:16:12;;;;;;;2.10;0.90;;;3.80;99.90;;;;;;5015618;28;20518;-86
2023/11/29 08:18:38;;;;;;;9.60;1.00;;;3.80;99.90;;;;;;5014041;28;20033;-85
2023/11/29 08:21:04;;;;;;;6.10;1.08;;;3.90;99.90;;;;;;5010491;28;20068;-84
2023/11/29 08:23:30;;;;;;;9.55;1.23;;;3.90;99.90;;;;;;5014529;28;20048;-85
2023/11/29 08:25:55;;;;;;;5.45;1.02;;;4.00;99.90;;;;;;5015759;28;20113;-84
2023/11/29 08:28:33;;;;;;;3.78;0.85;;;4.00;99.90;;;;;;5015095;28;20026;-86
2023/11/29 08:31:00;;;;;;;3.40;1.10;;;4.10;99.90;;;;;;5016524;28;20060;-84
2023/11/29 08:33:26;;;;;;;6.00;1.87;;;4.10;99.90;;;;;;5014853;28;20022;-85
2023/11/29 08:35:52;;;;;;;1.67;1.00;;;4.10;99.90;;;;;;5014094;28;20502;-85
2023/11/29 08:38:18;;;;;;;1.63;1.00;;;4.00;99.90;;;;;;5015719;28;20561;-84
2023/11/29 08:40:43;;;;;;;7.03;1.10;;;4.00;99.90;;;;;;5014669;28;20488;-85
2023/11/29 08:43:09;;;;;;;2.38;0.80;;;4.00;99.90;;;;;;5014673;28;20026;-85
2023/11/29 08:45:35;;;;;;;0.88;0.70;;;4.10;99.90;;;;;;5015537;28;20120;-85
2023/11/29 08:48:01;;;;;;;2.95;1.20;;;4.10;99.90;;;;;;5016072;28;20476;-85
2023/11/29 08:50:26;;;;;;;9.93;1.15;;;4.20;99.90;;;;;;5016312;28;20029;-85
2023/11/29 08:52:53;;;;;;;1.75;1.25;;;4.20;99.90;;;;;;5014860;28;20026;-85
2023/11/29 08:55:19;;;;;;;7.65;1.48;;;4.30;99.90;;;;;;5015926;28;20037;-84
2023/11/29 08:57:45;;;;;;;10.32;1.77;;;4.20;99.90;;;;;;5014639;28;20026;-84
2023/11/29 09:00:20;;;;;;;2.35;0.95;;;4.10;99.90;;;;;;5015900;28;20037;-84
2023/11/29 09:02:46;;;;;;;1.05;0.95;;;4.20;99.90;;;;;;5014312;28;20026;-84
2023/11/29 09:05:12;;;;;;;8.15;1.27;;;4.30;99.90;;;;;;5014559;28;20033;-84
2023/11/29 09:07:37;;;;;;;1.33;1.20;;;4.30;99.90;;;;;;5015894;28;20482;-84
2023/11/29 09:10:06;;;;;;;3.42;1.05;;;4.30;99.90;;;;;;5014606;28;20033;-84
2023/11/29 09:12:32;;;;;;;3.60;0.75;;;4.40;99.90;;;;;;5015726;28;20045;-83
2023/11/29 09:14:58;;;;;;;9.98;0.93;;;4.40;99.90;;;;;;5013264;28;20022;-83
2023/11/29 09:17:24;;;;;;;3.03;1.10;;;4.50;99.90;;;;;;5015485;28;20540;-83
2023/11/29 09:19:51;;;;;;;5.03;1.20;;;4.50;99.90;;;;;;5010310;28;20030;-84
2023/11/29 09:22:17;;;;;;;4.30;1.00;;;4.40;99.90;;;;;;5012651;28;20026;-84
2023/11/29 09:24:43;;;;;;;1.52;0.82;;;4.40;99.90;;;;;;5015366;28;20026;-83
2023/11/29 09:27:11;;;;;;;1.38;0.98;;;4.40;99.90;;;;;;5013664;28;20026;-84
2023/11/29 09:29:38;;;;;;;1.58;0.75;;;4.30;99.90;;;;;;5016088;28;20066;-84
2023/11/29 09:32:04;;;;;;;3.88;1.20;;;4.40;99.90;;;;;;5017168;28;20392;-83
2023/11/29 09:34:30;;;;;;;6.85;1.05;;;4.40;99.90;;;;;;5017957;28;20438;-84
2023/11/29 09:36:59;;;;;;;2.38;0.50;;;4.40;99.90;;;;;;5016436;28;20025;-84
2023/11/29 09:39:29;;;;;;;0.75;0.52;;;4.40;99.90;;;;;;5020549;28;20080;-84
2023/11/29 09:41:57;;;;;;;3.53;0.50;;;4.40;99.90;;;;;;5020574;28;20409;-84
2023/11/29 09:44:26;;;;;;;0.80;0.60;;;4.40;99.90;;;;;;5021148;28;20510;-83
2023/11/29 09:46:57;;;;;;;1.27;0.60;;;4.50;99.90;;;;;;5025203;28;20038;-84
2023/11/29 09:49:23;;;;;;;3.03;1.02;;;4.50;99.90;;;;;;5030690;28;20045;-83
2023/11/29 09:51:49;;;;;;;0.20;0.20;;;4.60;99.90;;;;;;5030077;28;20029;-82
2023/11/29 09:54:15;;;;;;;4.80;0.98;;;4.60;99.90;;;;;;5025282;28;20396;-83
2023/11/29 09:56:41;;;;;;;2.95;0.40;;;4.70;99.90;;;;;;5026538;28;20028;-83
2023/11/29 09:59:07;;;;;;;2.67;0.63;;;4.80;99.90;;;;;;5026223;28;20530;-83
2023/11/29 10:01:46;;;;;;;7.18;1.00;;;4.90;99.90;;;;;;5021853;28;20085;-83
2023/11/29 10:04:12;;;;;;;0.88;0.30;;;5.10;99.90;;;;;;5023217;28;20535;-82
2023/11/29 10:06:38;;;;;;;2.67;0.70;;;5.10;99.90;;;;;;5017510;28;20411;-83
2023/11/29 10:09:06;;;;;;;1.27;0.65;;;5.30;99.90;;;;;;5016923;28;20041;-84
2023/11/29 10:11:32;;;;;;;;;;;5.50;99.90;;;;;;5017041;28;20512;-83
2023/11/29 10:13:59;;;;;;;1.95;0.82;;;5.70;99.90;;;;;;5035378;28;19910;-83
2023/11/29 10:16:27;;;;;;;1.17;0.77;;;5.70;99.90;;;;;;5023876;28;20018;-82
2023/11/29 10:18:53;;;;;;;3.83;0.57;;;5.50;99.90;;;;;;5023343;28;20383;-83
2023/11/29 10:21:19;;;;;;;1.17;0.40;;;5.50;99.90;;;;;;5025107;28;20121;-83
2023/11/29 10:23:47;;;;;;;0.73;0.50;;;5.40;99.90;;;;;;5023000;28;20073;-83
2023/11/29 10:26:14;;;;;;;6.40;1.52;;;5.40;99.90;;;;;;5024221;28;20377;-82
2023/11/29 10:28:40;;;;;;;2.47;0.47;;;5.40;99.90;;;;;;5022356;28;20038;-83
2023/11/29 10:31:07;;;;;;;5.00;0.73;;;5.30;99.90;;;;;;5023507;28;20029;-83
2023/11/29 10:33:33;;;;;;;1.00;0.30;;;5.40;99.90;;;;;;5025869;28;20498;-84
2023/11/29 10:36:01;;;;;;;7.63;0.70;;;5.50;99.90;;;;;;5020730;28;20052;-83
2023/11/29 10:38:29;;;;;;;1.52;0.98;;;5.60;99.90;;;;;;5024788;28;20049;-84
2023/11/29 10:40:59;;;;;;;4.18;0.60;;;5.80;99.90;;;;;;5031009;28;20029;-83
2023/11/29 10:43:29;;;;;;;5.40;0.68;;;5.90;99.90;;;;;;5036088;28;20046;-85
2023/11/29 10:46:22;;;;;;;3.70;0.73;;;6.00;99.90;;;;;;5031248;28;20034;-84
2023/11/29 10:49:17;;;;;;;0.73;0.40;;;5.90;99.90;;;;;;5022074;28;20077;-80
2023/11/29 10:51:46;;;;;;;0.43;0.43;;;5.80;99.90;;;;;;5013977;28;20045;-83
2023/11/29 10:54:16;;;;;;;10.35;0.55;;;5.90;99.90;;;;;;5032312;28;20018;-79
2023/11/29 10:56:46;;;;;;;1.70;0.50;;;5.60;99.90;;;;;;5030300;28;20026;-85
2023/11/29 10:59:33;;;;;;;2.67;0.57;;;5.50;99.90;;;;;;5019427;28;20030;-86
2023/11/29 11:01:59;;;;;;;1.02;0.40;;;5.30;99.90;;;;;;5026498;28;20014;-80
2023/11/29 11:04:33;;;;;;;17.33;1.48;;;5.10;99.90;;;;;;5022009;28;20036;-82
2023/11/29 11:07:01;;;;;;;1.58;0.73;;;5.00;99.90;;;;;;5013418;28;20034;-85
2023/11/29 11:09:42;;;;;;;2.27;0.60;;;5.00;99.90;;;;;;5013371;28;20049;-82
2023/11/29 11:12:08;;;;;;;5.78;0.80;;;5.00;99.90;;;;;;5008504;28;20058;-84
2023/11/29 11:14:44;;;;;;;0.60;0.50;;;5.00;99.90;;;;;;5015217;28;20369;-84
2023/11/29 11:17:10;;;;;;;3.55;0.70;;;4.90;99.90;;;;;;5014614;28;20018;-83
2023/11/29 11:19:40;;;;;;;4.55;0.80;;;5.00;99.90;;;;;;5013914;28;20072;-84
2023/11/29 11:22:09;;;;;;;5.28;1.13;;;4.90;99.90;;;;;;5013186;28;20574;-85
2023/11/29 11:25:00;;;;;;;7.15;0.77;;;4.90;99.90;;;;;;5028454;28;20459;-85
2023/11/29 11:27:38;;;;;;;1.05;0.43;;;5.00;99.90;;;;;;5011885;28;20034;-83
2023/11/29 11:30:26;;;;;;;0.73;0.60;;;5.00;99.90;;;;;;5012883;28;20033;-83
2023/11/29 11:32:57;;;;;;;2.10;0.70;;;5.10;99.90;;;;;;5010487;28;20058;-87
2023/11/29 11:35:31;;;;;;;2.60;0.70;;;5.00;99.90;;;;;;5011027;28;20447;-85
2023/11/29 11:38:03;;;;;;;1.73;0.85;;;5.00;99.90;;;;;;5014008;28;20022;-83
2023/11/29 11:40:30;;;;;;;2.15;0.52;;;5.00;99.90;;;;;;5015433;28;20040;-86
2023/11/29 11:42:59;;;;;;;2.73;0.57;;;4.90;99.90;;;;;;5016200;28;20033;-84
2023/11/29 11:45:32;;;;;;;0.30;0.30;;;5.00;99.90;;;;;;5016368;28;20038;-85
2023/11/29 11:48:01;;;;;;;1.40;0.32;;;4.90;99.90;;;;;;5015537;28;20030;-80
2023/11/29 11:50:27;;;;;;;3.80;0.88;;;4.70;99.90;;;;;;5016745;28;20479;-81
2023/11/29 11:52:53;;;;;;;1.08;0.98;;;4.60;99.90;;;;;;5019301;28;20041;-82
2023/11/29 11:55:20;;;;;;;3.25;0.60;;;4.50;99.90;;;;;;5018304;28;20037;-82
2023/11/29 11:57:49;;;;;;;0.47;0.30;;;4.40;99.90;;;;;;5017717;28;20109;-82
2023/11/29 12:00:17;;;;;;;0.95;0.55;;;4.40;99.90;;;;;;5018174;28;20109;-84
2023/11/29 12:02:44;;;;;;;0.70;0.60;;;4.40;99.90;;;;;;5018204;28;20373;-83
2023/11/29 12:05:11;;;;;;;0.50;0.43;;;4.50;99.90;;;;;;5016326;28;20049;-83
2023/11/29 12:07:43;;;;;;;0.95;0.40;;;4.40;99.90;;;;;;5015835;28;20667;-86
2023/11/29 12:10:13;;;;;;;0.80;0.60;;;4.40;99.90;;;;;;5016049;28;20026;-89
2023/11/29 12:12:40;;;;;;;7.90;0.90;;;4.40;99.90;;;;;;5015553;28;20470;-85
2023/11/29 12:15:07;;;;;;;1.15;0.90;;;4.40;99.90;;;;;;5015546;28;20026;-84
2023/11/29 12:17:34;;;;;;;1.33;0.35;;;4.30;99.90;;;;;;5014226;28;20032;-85
2023/11/29 12:20:04;;;;;;;1.05;0.50;;;4.20;99.90;;;;;;5015003;28;20159;-83
2023/11/29 12:22:31;;;;;;;1.48;0.60;;;4.00;99.90;;;;;;5014850;28;20076;-84
2023/11/29 12:24:57;;;;;;;0.40;0.40;;;3.80;99.90;;;;;;5015843;28;20044;-83
2023/11/29 12:27:25;;;;;;;0.98;0.50;;;3.70;99.90;;;;;;5014212;28;20021;-82
2023/11/29 12:29:51;;;;;;;1.17;0.30;;;3.70;99.90;;;;;;5014953;28;20049;-82
2023/11/29 12:32:17;;;;;;;0.95;0.47;;;3.80;99.90;;;;;;5015579;28;20034;-83
2023/11/29 12:34:45;;;;;;;0.70;0.32;;;3.90;99.90;;;;;;5015023;28;20117;-85
2023/11/29 12:37:17;;;;;;;0.85;0.50;;;4.00;99.90;;;;;;5012217;28;20053;-81
2023/11/29 12:39:46;;;;;;;2.25;0.73;;;4.20;99.90;;;;;;5013796;28;20034;-85
2023/11/29 12:42:11;;;;;;;0.93;0.50;;;4.30;99.90;;;;;;5011530;28;20025;-82
2023/11/29 12:44:38;;;;;;;1.98;0.32;;;4.50;99.90;;;;;;5014807;28;20387;-84
2023/11/29 12:47:05;;;;;;;2.83;0.63;;;4.60;99.90;;;;;;5014474;28;20041;-84
2023/11/29 12:49:31;;;;;;;2.70;0.65;;;4.70;99.90;;;;;;5010604;28;20597;-83
2023/11/29 12:51:58;;;;;;;1.48;0.40;;;4.80;99.90;;;;;;5013770;28;20113;-84
2023/11/29 12:54:24;;;;;;;6.25;0.88;;;4.90;99.90;;;;;;5013234;28;20029;-83
2023/11/29 12:56:51;;;;;;;0.30;0.30;;;5.00;99.90;;;;;;5013768;28;20421;-84